Time;durP1;ratioP1;P1;durP2;ratioP2;P2;SDS_P1;SDS_P2;PMS_P1;PMS_P2;Temp;Humidity;BMP_temperature;BMP_pressure;BME280_temperature;BME280_humidity;BME280_pressure;Samples;Min_cycle;Max_cycle;Signal;HPM_P1;HPM_P2
2023/12/12 00:00:33;;;;;;;3.22;1.10;;;;;;;;;;5028139;28;20045;-83
2023/12/12 00:03:00;;;;;;;2.95;1.50;;;;;;;;;;5026684;28;20041;-83
2023/12/12 00:05:26;;;;;;;1.35;1.00;;;;;;;;;;5030980;28;20147;-83
2023/12/12 00:07:52;;;;;;;1.42;1.25;;;;;;;;;;5027263;28;20049;-83
2023/12/12 00:10:18;;;;;;;3.60;1.23;;;;;;;;;;5028048;28;20033;-83
2023/12/12 00:12:44;;;;;;;2.65;1.20;;;;;;;;;;5044813;28;20041;-83
2023/12/12 00:15:10;;;;;;;1.63;1.15;;;;;;;;;;5028157;28;20117;-83
2023/12/12 00:17:37;;;;;;;2.40;1.33;;;;;;;;;;5012519;28;20037;-83
2023/12/12 00:20:04;;;;;;;1.70;1.20;;;;;;;;;;5027133;28;20044;-83
2023/12/12 00:22:30;;;;;;;2.42;1.20;;;;;;;;;;5026449;28;20044;-83
2023/12/12 00:24:56;;;;;;;5.57;1.85;;;;;;;;;;5030611;28;20037;-83
2023/12/12 00:27:22;;;;;;;8.88;1.48;;;;;;;;;;5047616;28;20484;-83
2023/12/12 00:29:48;;;;;;;1.63;1.00;;;;;;;;;;5047904;28;20556;-83
2023/12/12 00:32:14;;;;;;;3.50;0.88;;;;;;;;;;5043982;28;20128;-83
2023/12/12 00:34:41;;;;;;;1.38;0.98;;;;;;;;;;5030593;28;20124;-83
2023/12/12 00:37:07;;;;;;;1.80;1.02;;;;;;;;;;5006194;28;20041;-83
2023/12/12 00:39:39;;;;;;;3.13;1.02;;;;;;;;;;5026880;28;20124;-83
2023/12/12 00:42:05;;;;;;;2.67;1.40;;;;;;;;;;5038990;28;20084;-83
2023/12/12 00:44:31;;;;;;;2.00;1.15;;;;;;;;;;5026356;28;20151;-83
2023/12/12 00:46:57;;;;;;;2.08;1.15;;;;;;;;;;5028513;28;20037;-83
2023/12/12 00:49:23;;;;;;;4.75;1.15;;;;;;;;;;5032413;28;20075;-83
2023/12/12 00:51:49;;;;;;;3.58;1.13;;;;;;;;;;5030778;28;20492;-83
2023/12/12 00:54:15;;;;;;;1.77;0.98;;;;;;;;;;5026132;28;20115;-83
2023/12/12 00:56:44;;;;;;;3.53;1.10;;;;;;;;;;5024949;28;20053;-83
2023/12/12 00:59:10;;;;;;;2.22;1.08;;;;;;;;;;5041480;28;20049;-83
2023/12/12 01:01:36;;;;;;;4.97;1.30;;;;;;;;;;5044184;28;20038;-83
2023/12/12 01:04:03;;;;;;;2.38;1.10;;;;;;;;;;5029566;28;20135;-83
2023/12/12 01:06:29;;;;;;;2.75;1.00;;;;;;;;;;5025406;28;20468;-83
2023/12/12 01:08:55;;;;;;;3.90;1.38;;;;;;;;;;5029592;28;20136;-83
2023/12/12 01:11:21;;;;;;;2.97;1.02;;;;;;;;;;5030617;28;20072;-83
2023/12/12 01:13:48;;;;;;;5.13;1.00;;;;;;;;;;5028536;28;20044;-83
2023/12/12 01:16:14;;;;;;;2.13;0.98;;;;;;;;;;5029556;28;20068;-83
2023/12/12 01:18:40;;;;;;;1.38;1.10;;;;;;;;;;5027333;28;20034;-83
2023/12/12 01:21:06;;;;;;;2.70;0.90;;;;;;;;;;5025207;28;20053;-83
2023/12/12 01:23:51;;;;;;;1.23;0.85;;;;;;;;;;5026318;28;20039;-83
2023/12/12 01:26:18;;;;;;;1.77;0.80;;;;;;;;;;5044502;28;20033;-83
2023/12/12 01:28:44;;;;;;;1.55;1.00;;;;;;;;;;5025036;28;20030;-83
2023/12/12 01:31:10;;;;;;;1.85;0.52;;;;;;;;;;5027170;28;20519;-82
2023/12/12 01:33:36;;;;;;;1.27;0.75;;;;;;;;;;5032537;28;20076;-83
2023/12/12 01:36:02;;;;;;;2.17;0.90;;;;;;;;;;5005345;28;20057;-83
2023/12/12 01:38:28;;;;;;;1.65;0.70;;;;;;;;;;5026674;28;20506;-83
2023/12/12 01:40:54;;;;;;;1.02;0.60;;;;;;;;;;5012574;28;20040;-83
2023/12/12 01:43:27;;;;;;;2.83;0.88;;;;;;;;;;5027986;28;20041;-83
2023/12/12 01:45:59;;;;;;;3.08;0.80;;;;;;;;;;5031235;28;20051;-83
2023/12/12 01:48:25;;;;;;;2.25;0.98;;;;;;;;;;5031382;28;20051;-83
2023/12/12 01:50:51;;;;;;;2.40;0.70;;;;;;;;;;5026683;28;20105;-83
2023/12/12 01:53:20;;;;;;;1.73;0.52;;;;;;;;;;5026518;28;20037;-83
2023/12/12 01:55:48;;;;;;;2.33;0.70;;;;;;;;;;5025764;28;20072;-83
2023/12/12 01:58:15;;;;;;;1.45;0.60;;;;;;;;;;5007145;28;20049;-83
2023/12/12 02:00:41;;;;;;;3.70;1.13;;;;;;;;;;5026187;28;20492;-83
2023/12/12 02:03:07;;;;;;;1.83;0.80;;;;;;;;;;5024206;28;20072;-83
2023/12/12 02:05:34;;;;;;;2.10;1.02;;;;;;;;;;5027838;28;20084;-83
2023/12/12 02:08:00;;;;;;;2.42;0.80;;;;;;;;;;5028080;28;20041;-83
2023/12/12 02:10:26;;;;;;;1.92;0.82;;;;;;;;;;5025801;28;20500;-83
2023/12/12 02:12:53;;;;;;;1.42;0.60;;;;;;;;;;5029627;28;20063;-83
2023/12/12 02:15:19;;;;;;;3.45;1.00;;;;;;;;;;5029128;28;20435;-83
2023/12/12 02:17:45;;;;;;;2.33;0.80;;;;;;;;;;5029527;28;20094;-83
2023/12/12 02:20:12;;;;;;;1.20;0.73;;;;;;;;;;5027229;28;20053;-83
2023/12/12 02:22:38;;;;;;;2.00;0.82;;;;;;;;;;5026297;28;20045;-83
2023/12/12 02:25:04;;;;;;;1.20;0.80;;;;;;;;;;5025227;28;20048;-83
2023/12/12 02:27:30;;;;;;;1.50;0.70;;;;;;;;;;5024854;28;20388;-83
2023/12/12 02:29:56;;;;;;;2.58;0.70;;;;;;;;;;5024884;28;20033;-83
2023/12/12 02:32:22;;;;;;;2.47;1.10;;;;;;;;;;5023158;28;20056;-83
2023/12/12 02:34:48;;;;;;;1.20;0.73;;;;;;;;;;5012152;28;20485;-83
2023/12/12 02:37:14;;;;;;;3.22;1.05;;;;;;;;;;5042890;28;20334;-83
2023/12/12 02:39:41;;;;;;;3.60;0.80;;;;;;;;;;5025793;28;20075;-85
2023/12/12 02:42:07;;;;;;;2.03;0.98;;;;;;;;;;5023189;28;20407;-83
2023/12/12 02:44:33;;;;;;;3.92;1.92;;;;;;;;;;5044198;28;20427;-83
2023/12/12 02:46:59;;;;;;;1.75;1.10;;;;;;;;;;5042657;28;20048;-85
2023/12/12 02:49:25;;;;;;;2.25;1.15;;;;;;;;;;5048644;28;20041;-83
2023/12/12 02:51:51;;;;;;;1.33;1.10;;;;;;;;;;5025395;28;20045;-83
2023/12/12 02:54:17;;;;;;;2.00;1.30;;;;;;;;;;5010034;28;20041;-83
2023/12/12 02:56:43;;;;;;;3.25;1.20;;;;;;;;;;5016623;28;20094;-83
2023/12/12 02:59:09;;;;;;;3.72;0.98;;;;;;;;;;5021617;28;20376;-83
2023/12/12 03:01:35;;;;;;;4.10;1.20;;;;;;;;;;5010270;28;20034;-83
2023/12/12 03:04:01;;;;;;;2.33;1.25;;;;;;;;;;5028099;28;20119;-83
2023/12/12 03:06:27;;;;;;;3.90;1.27;;;;;;;;;;5031347;28;20072;-83
2023/12/12 03:08:53;;;;;;;3.50;1.65;;;;;;;;;;5048850;28;20029;-83
2023/12/12 03:11:19;;;;;;;4.05;2.10;;;;;;;;;;5029298;28;20041;-83
2023/12/12 03:13:45;;;;;;;4.18;1.70;;;;;;;;;;5044387;28;20049;-83
2023/12/12 03:16:11;;;;;;;2.78;1.55;;;;;;;;;;5026666;28;20044;-83
2023/12/12 03:18:37;;;;;;;3.35;1.80;;;;;;;;;;5017097;28;20037;-83
2023/12/12 03:21:03;;;;;;;4.03;1.73;;;;;;;;;;5028463;28;20204;-83
2023/12/12 03:23:29;;;;;;;3.47;1.83;;;;;;;;;;5041434;28;20069;-83
2023/12/12 03:25:55;;;;;;;3.75;1.80;;;;;;;;;;5029623;28;20075;-83
2023/12/12 03:28:21;;;;;;;4.43;2.08;;;;;;;;;;5028693;28;20064;-84
2023/12/12 03:30:47;;;;;;;2.97;1.75;;;;;;;;;;5046810;28;20045;-83
2023/12/12 03:33:13;;;;;;;5.55;2.60;;;;;;;;;;5025875;28;20510;-84
2023/12/12 03:35:39;;;;;;;3.97;2.50;;;;;;;;;;5031008;28;20040;-83
2023/12/12 03:38:05;;;;;;;5.57;2.60;;;;;;;;;;5018217;28;20079;-83
2023/12/12 03:40:31;;;;;;;2.53;1.95;;;;;;;;;;5015640;28;20187;-83
2023/12/12 03:42:57;;;;;;;4.28;2.30;;;;;;;;;;5028778;28;20040;-83
2023/12/12 03:45:23;;;;;;;5.97;2.28;;;;;;;;;;5013771;28;20037;-83
2023/12/12 03:47:49;;;;;;;4.43;2.70;;;;;;;;;;5031422;28;20045;-83
2023/12/12 03:50:16;;;;;;;5.03;2.22;;;;;;;;;;5030964;28;20451;-83
2023/12/12 03:52:42;;;;;;;5.25;2.40;;;;;;;;;;5030437;28;20045;-84
2023/12/12 03:55:08;;;;;;;5.38;2.25;;;;;;;;;;5046886;28;20551;-84
2023/12/12 03:57:34;;;;;;;7.07;3.17;;;;;;;;;;5026434;28;20060;-83
2023/12/12 04:00:00;;;;;;;5.07;2.65;;;;;;;;;;5027805;28;20032;-84
2023/12/12 04:02:28;;;;;;;4.93;2.70;;;;;;;;;;5032101;28;20435;-83
2023/12/12 04:04:54;;;;;;;7.20;2.90;;;;;;;;;;5023972;28;20562;-83
2023/12/12 04:07:20;;;;;;;5.25;2.85;;;;;;;;;;5011313;28;20068;-83
2023/12/12 04:09:46;;;;;;;4.60;2.38;;;;;;;;;;5045155;28;20040;-83
2023/12/12 04:12:12;;;;;;;10.25;3.83;;;;;;;;;;5027577;28;20543;-83
2023/12/12 04:14:38;;;;;;;7.38;3.42;;;;;;;;;;5027400;28;20033;-83
2023/12/12 04:17:04;;;;;;;6.45;3.17;;;;;;;;;;5023927;28;20041;-84
2023/12/12 04:19:30;;;;;;;7.75;3.33;;;;;;;;;;5031908;28;20069;-84
2023/12/12 04:21:56;;;;;;;6.78;3.10;;;;;;;;;;5027288;28;20060;-83
2023/12/12 04:24:22;;;;;;;5.03;2.97;;;;;;;;;;5028604;28;20079;-83
2023/12/12 04:26:48;;;;;;;9.85;3.38;;;;;;;;;;5009048;28;20124;-83
2023/12/12 04:29:14;;;;;;;5.70;3.20;;;;;;;;;;5026313;28;20040;-84
2023/12/12 04:31:41;;;;;;;10.43;4.03;;;;;;;;;;5024686;28;20037;-84
2023/12/12 04:34:07;;;;;;;9.82;3.30;;;;;;;;;;5044926;28;20034;-84
2023/12/12 04:36:33;;;;;;;7.35;3.03;;;;;;;;;;5042780;28;20104;-83
2023/12/12 04:38:59;;;;;;;5.78;2.90;;;;;;;;;;5040311;28;20433;-84
2023/12/12 04:41:25;;;;;;;8.32;3.88;;;;;;;;;;5028234;28;20060;-84
2023/12/12 04:43:51;;;;;;;5.90;3.13;;;;;;;;;;5008667;28;20116;-83
2023/12/12 04:46:20;;;;;;;10.35;2.90;;;;;;;;;;5043226;28;20033;-84
2023/12/12 04:48:47;;;;;;;15.85;4.10;;;;;;;;;;5027745;28;20036;-84
2023/12/12 04:51:13;;;;;;;20.45;4.63;;;;;;;;;;5027268;28;20107;-84
2023/12/12 04:53:39;;;;;;;15.93;4.18;;;;;;;;;;5025836;28;20037;-83
2023/12/12 04:56:05;;;;;;;24.13;5.35;;;;;;;;;;5023498;28;20038;-83
2023/12/12 04:58:31;;;;;;;21.27;4.40;;;;;;;;;;5027573;28;21158;-84
2023/12/12 05:00:57;;;;;;;22.27;3.78;;;;;;;;;;5025752;28;20040;-84
2023/12/12 05:03:23;;;;;;;17.88;3.85;;;;;;;;;;5027755;28;20034;-83
2023/12/12 05:05:49;;;;;;;30.42;4.60;;;;;;;;;;5021978;28;20044;-83
2023/12/12 05:08:15;;;;;;;23.13;4.45;;;;;;;;;;5026315;28;20049;-84
2023/12/12 05:10:41;;;;;;;11.85;3.42;;;;;;;;;;5022813;28;20092;-84
2023/12/12 05:13:07;;;;;;;6.25;2.75;;;;;;;;;;5022405;28;20506;-83
2023/12/12 05:15:33;;;;;;;6.35;2.88;;;;;;;;;;5026076;28;20126;-83
2023/12/12 05:18:00;;;;;;;7.63;2.90;;;;;;;;;;5025337;28;20049;-84
2023/12/12 05:20:26;;;;;;;13.93;2.88;;;;;;;;;;5043576;28;20038;-83
2023/12/12 05:22:52;;;;;;;4.88;2.78;;;;;;;;;;5021776;28;20489;-83
2023/12/12 05:25:18;;;;;;;6.07;2.63;;;;;;;;;;5019566;28;20044;-84
2023/12/12 05:27:44;;;;;;;5.00;2.85;;;;;;;;;;5021331;28;20045;-83
2023/12/12 05:30:12;;;;;;;6.25;3.10;;;;;;;;;;5027912;28;20140;-83
2023/12/12 05:32:39;;;;;;;7.80;3.22;;;;;;;;;;5022988;28;20084;-84
2023/12/12 05:35:07;;;;;;;11.30;3.38;;;;;;;;;;5018730;28;20146;-83
2023/12/12 05:37:33;;;;;;;14.70;2.90;;;;;;;;;;5025999;28;20095;-84
2023/12/12 05:39:59;;;;;;;9.07;3.30;;;;;;;;;;5025380;28;20081;-84
2023/12/12 05:42:26;;;;;;;36.50;3.92;;;;;;;;;;5023894;28;20049;-83
2023/12/12 05:44:52;;;;;;;8.52;3.05;;;;;;;;;;5026132;28;20041;-84
2023/12/12 05:47:18;;;;;;;11.80;3.20;;;;;;;;;;5002299;28;20127;-84
2023/12/12 05:49:44;;;;;;;5.30;3.28;;;;;;;;;;5031314;28;20049;-83
2023/12/12 05:52:10;;;;;;;9.65;3.25;;;;;;;;;;5042476;28;20491;-83
2023/12/12 05:54:36;;;;;;;8.85;2.90;;;;;;;;;;5041290;28;20420;-84
2023/12/12 05:57:03;;;;;;;7.60;3.20;;;;;;;;;;5020651;28;20041;-83
2023/12/12 05:59:29;;;;;;;7.40;3.40;;;;;;;;;;5046475;28;20515;-84
2023/12/12 06:01:55;;;;;;;11.50;4.18;;;;;;;;;;5039986;28;20041;-83
2023/12/12 06:04:21;;;;;;;9.65;3.55;;;;;;;;;;5026846;28;20129;-84
2023/12/12 06:06:47;;;;;;;8.68;3.67;;;;;;;;;;5021898;28;20081;-83
2023/12/12 06:09:13;;;;;;;9.48;3.33;;;;;;;;;;5044141;28;20128;-84
2023/12/12 06:11:39;;;;;;;6.53;3.08;;;;;;;;;;5025532;28;20401;-84
2023/12/12 06:14:05;;;;;;;8.90;3.28;;;;;;;;;;5022772;28;20044;-84
2023/12/12 06:16:31;;;;;;;6.75;3.15;;;;;;;;;;5022762;28;20072;-83
2023/12/12 06:18:58;;;;;;;10.70;3.70;;;;;;;;;;5039404;28;20205;-84
2023/12/12 06:21:24;;;;;;;20.10;4.13;;;;;;;;;;5025803;28;20037;-84
2023/12/12 06:23:50;;;;;;;13.30;4.20;;;;;;;;;;5033586;28;20174;-81
2023/12/12 06:26:16;;;;;;;36.85;7.10;;;;;;;;;;5046564;28;20588;-83
2023/12/12 06:28:42;;;;;;;20.70;5.47;;;;;;;;;;5046568;28;20093;-83
2023/12/12 06:31:08;;;;;;;15.57;4.10;;;;;;;;;;5031726;28;20037;-82
2023/12/12 06:33:34;;;;;;;7.75;3.08;;;;;;;;;;5032068;28;20064;-82
2023/12/12 06:36:00;;;;;;;28.77;5.35;;;;;;;;;;5025059;28;20092;-83
2023/12/12 06:38:26;;;;;;;20.75;4.47;;;;;;;;;;5051396;28;20094;-83
2023/12/12 06:40:54;;;;;;;17.80;4.07;;;;;;;;;;5051508;28;20488;-83
2023/12/12 06:43:20;;;;;;;7.95;4.18;;;;;;;;;;5035667;28;20048;-83
2023/12/12 06:45:46;;;;;;;17.63;4.47;;;;;;;;;;5029540;28;20056;-83
2023/12/12 06:48:12;;;;;;;25.30;5.70;;;;;;;;;;5030794;28;20566;-85
2023/12/12 06:50:38;;;;;;;37.33;7.07;;;;;;;;;;5052945;28;20212;-83
2023/12/12 06:53:04;;;;;;;48.40;6.38;;;;;;;;;;5049870;28;20127;-82
2023/12/12 06:55:30;;;;;;;16.02;4.25;;;;;;;;;;5037275;28;20124;-83
2023/12/12 06:57:57;;;;;;;35.15;6.55;;;;;;;;;;5033851;28;20041;-84
2023/12/12 07:00:24;;;;;;;20.67;5.47;;;;;;;;;;5029412;28;20567;-82
2023/12/12 07:02:50;;;;;;;28.90;6.38;;;;;;;;;;5029045;28;20049;-85
2023/12/12 07:05:16;;;;;;;16.10;4.60;;;;;;;;;;5032464;28;20043;-83
2023/12/12 07:07:43;;;;;;;23.65;5.78;;;;;;;;;;5033580;28;20037;-85
2023/12/12 07:10:09;;;;;;;20.10;4.88;;;;;;;;;;5030025;28;20049;-83
2023/12/12 07:12:35;;;;;;;10.10;4.43;;;;;;;;;;5047501;28;20037;-83
2023/12/12 07:15:01;;;;;;;29.73;6.22;;;;;;;;;;5049529;28;20170;-83
2023/12/12 07:17:27;;;;;;;11.45;5.03;;;;;;;;;;5051689;28;20399;-83
2023/12/12 07:19:54;;;;;;;33.95;7.55;;;;;;;;;;5032739;28;20037;-83
2023/12/12 07:22:21;;;;;;;19.60;5.15;;;;;;;;;;5050525;28;20451;-83
2023/12/12 07:24:47;;;;;;;19.77;5.47;;;;;;;;;;5048035;28;20047;-83
2023/12/12 07:27:13;;;;;;;44.90;9.35;;;;;;;;;;5048302;28;20036;-83
2023/12/12 07:29:39;;;;;;;19.10;5.53;;;;;;;;;;5052078;28;20037;-83
2023/12/12 07:32:05;;;;;;;20.13;5.65;;;;;;;;;;5053771;28;20064;-82
2023/12/12 07:34:31;;;;;;;21.65;6.65;;;;;;;;;;5051876;28;20527;-83
2023/12/12 07:36:57;;;;;;;28.50;6.70;;;;;;;;;;5052960;28;20037;-83
2023/12/12 07:39:23;;;;;;;26.48;6.88;;;;;;;;;;5053106;28;20044;-82
2023/12/12 07:41:49;;;;;;;28.42;6.75;;;;;;;;;;5052414;28;20400;-83
2023/12/12 07:44:15;;;;;;;28.35;5.35;;;;;;;;;;5050954;28;20039;-82
2023/12/12 07:46:41;;;;;;;25.15;7.25;;;;;;;;;;5056297;28;20043;-82
2023/12/12 07:49:07;;;;;;;19.08;5.63;;;;;;;;;;5037757;28;20029;-82
2023/12/12 07:51:33;;;;;;;15.05;5.15;;;;;;;;;;5053844;28;20065;-85
2023/12/12 07:54:01;;;;;;;15.70;5.80;;;;;;;;;;5024454;28;20037;-84
2023/12/12 07:56:27;;;;;;;24.45;7.47;;;;;;;;;;5033849;28;20052;-85
2023/12/12 07:58:53;;;;;;;20.38;6.65;;;;;;;;;;5033224;28;20049;-84
2023/12/12 08:01:19;;;;;;;16.60;6.38;;;;;;;;;;5032997;28;20049;-82
2023/12/12 08:03:45;;;;;;;37.35;9.48;;;;;;;;;;5035949;28;20048;-82
2023/12/12 08:06:11;;;;;;;33.83;7.82;;;;;;;;;;5032185;28;20042;-85
2023/12/12 08:08:37;;;;;;;53.17;8.40;;;;;;;;;;5047761;28;20484;-82
2023/12/12 08:11:03;;;;;;;32.47;8.63;;;;;;;;;;5032386;28;20084;-83
2023/12/12 08:13:30;;;;;;;31.45;9.52;;;;;;;;;;5032127;28;20041;-82
2023/12/12 08:15:56;;;;;;;24.95;6.97;;;;;;;;;;5031788;28;20045;-82
2023/12/12 08:18:22;;;;;;;28.35;7.65;;;;;;;;;;5037565;28;20442;-82
2023/12/12 08:20:49;;;;;;;28.10;8.75;;;;;;;;;;5055670;28;20063;-83
2023/12/12 08:23:15;;;;;;;61.00;8.82;;;;;;;;;;5057111;28;20122;-82
2023/12/12 08:25:41;;;;;;;52.00;10.77;;;;;;;;;;5047536;28;20045;-82
2023/12/12 08:28:08;;;;;;;31.65;7.72;;;;;;;;;;5032142;28;20500;-82
2023/12/12 08:30:36;;;;;;;31.92;7.97;;;;;;;;;;5032088;28;20049;-82
2023/12/12 08:33:02;;;;;;;25.27;7.07;;;;;;;;;;5032835;28;20049;-82
2023/12/12 08:35:28;;;;;;;21.73;8.05;;;;;;;;;;5049594;28;20087;-82
2023/12/12 08:37:54;;;;;;;31.67;8.70;;;;;;;;;;5054901;28;20079;-82
2023/12/12 08:40:20;;;;;;;20.48;8.00;;;;;;;;;;5030528;28;20392;-82
2023/12/12 08:42:46;;;;;;;25.63;8.95;;;;;;;;;;5049000;28;20041;-82
2023/12/12 08:45:12;;;;;;;28.20;7.35;;;;;;;;;;5046080;28;20092;-82
2023/12/12 08:47:38;;;;;;;38.40;9.73;;;;;;;;;;5028155;28;20416;-82
2023/12/12 08:50:05;;;;;;;33.60;9.15;;;;;;;;;;5051580;28;20037;-83
2023/12/12 08:52:34;;;;;;;39.20;9.55;;;;;;;;;;5032186;28;20519;-81
2023/12/12 08:55:00;;;;;;;27.52;9.25;;;;;;;;;;5048479;28;20049;-82
2023/12/12 08:57:26;;;;;;;36.50;10.48;;;;;;;;;;5034672;28;20127;-82
2023/12/12 08:59:52;;;;;;;33.83;10.60;;;;;;;;;;5034596;28;20068;-83
2023/12/12 09:02:18;;;;;;;23.77;8.30;;;;;;;;;;5013950;28;20045;-85
2023/12/12 09:04:44;;;;;;;35.17;8.77;;;;;;;;;;5028165;28;20393;-85
2023/12/12 09:07:10;;;;;;;35.22;8.98;;;;;;;;;;5025724;28;20025;-84
2023/12/12 09:09:36;;;;;;;25.75;9.13;;;;;;;;;;5029093;28;20037;-85
2023/12/12 09:12:03;;;;;;;31.33;9.43;;;;;;;;;;5026710;28;20045;-85
2023/12/12 09:14:29;;;;;;;27.95;8.88;;;;;;;;;;5023413;28;20053;-84
2023/12/12 09:16:55;;;;;;;32.38;10.00;;;;;;;;;;5026400;28;20092;-84
2023/12/12 09:19:21;;;;;;;21.90;8.27;;;;;;;;;;5030972;28;20037;-83
2023/12/12 09:21:48;;;;;;;33.08;10.32;;;;;;;;;;5033500;28;20037;-84
2023/12/12 09:24:14;;;;;;;49.33;11.82;;;;;;;;;;5044729;28;20064;-84
2023/12/12 09:26:40;;;;;;;44.63;10.45;;;;;;;;;;5028591;28;20041;-84
2023/12/12 09:29:06;;;;;;;28.88;9.00;;;;;;;;;;5043841;28;20068;-85
2023/12/12 09:31:34;;;;;;;29.35;9.85;;;;;;;;;;5050510;28;20082;-84
2023/12/12 09:34:00;;;;;;;47.35;10.70;;;;;;;;;;5027622;28;20044;-85
2023/12/12 09:36:26;;;;;;;28.55;9.43;;;;;;;;;;5050362;28;20040;-84
2023/12/12 09:38:52;;;;;;;28.80;8.20;;;;;;;;;;5044767;28;20109;-84
2023/12/12 09:41:23;;;;;;;21.75;8.98;;;;;;;;;;5030325;28;20202;-84
2023/12/12 09:43:49;;;;;;;22.00;9.23;;;;;;;;;;5026750;28;20074;-84
2023/12/12 09:46:16;;;;;;;38.58;10.52;;;;;;;;;;5028796;28;20125;-83
2023/12/12 09:48:45;;;;;;;27.98;10.35;;;;;;;;;;5027717;28;20487;-84
2023/12/12 09:51:14;;;;;;;20.85;8.77;;;;;;;;;;5028403;28;20049;-84
2023/12/12 09:53:46;;;;;;;18.55;8.73;;;;;;;;;;5024970;28;20060;-84
2023/12/12 09:56:13;;;;;;;24.45;9.45;;;;;;;;;;5024986;28;20045;-84
2023/12/12 09:58:39;;;;;;;20.77;8.77;;;;;;;;;;5033634;28;20045;-84
2023/12/12 10:01:06;;;;;;;16.95;7.82;;;;;;;;;;5029844;28;20029;-84
2023/12/12 10:03:32;;;;;;;19.33;9.38;;;;;;;;;;5031691;28;20400;-83
2023/12/12 10:06:03;;;;;;;15.98;9.30;;;;;;;;;;5023742;28;20068;-84
2023/12/12 10:08:29;;;;;;;15.55;7.45;;;;;;;;;;5046029;28;20040;-84
2023/12/12 10:10:55;;;;;;;20.63;9.82;;;;;;;;;;5046300;28;20033;-83
2023/12/12 10:13:22;;;;;;;19.55;9.48;;;;;;;;;;5050543;28;20037;-83
2023/12/12 10:15:48;;;;;;;17.10;8.95;;;;;;;;;;5044486;28;20049;-84
2023/12/12 10:18:14;;;;;;;19.25;9.05;;;;;;;;;;5029768;28;20123;-84
2023/12/12 10:20:40;;;;;;;22.42;9.27;;;;;;;;;;5033252;28;20104;-83
2023/12/12 10:23:06;;;;;;;15.95;8.32;;;;;;;;;;5033825;28;20041;-83
2023/12/12 10:25:34;;;;;;;22.92;9.20;;;;;;;;;;5050572;28;20120;-82
2023/12/12 10:28:00;;;;;;;16.52;9.25;;;;;;;;;;5023172;28;20033;-85
2023/12/12 10:30:26;;;;;;;18.65;8.77;;;;;;;;;;5029487;28;20040;-83
2023/12/12 10:32:54;;;;;;;16.73;8.13;;;;;;;;;;5039990;28;20056;-86
2023/12/12 10:35:20;;;;;;;15.85;7.72;;;;;;;;;;5021145;28;20095;-85
2023/12/12 10:37:46;;;;;;;15.98;8.85;;;;;;;;;;5015956;28;20041;-82
2023/12/12 10:40:12;;;;;;;17.48;8.55;;;;;;;;;;5031155;28;20045;-86
2023/12/12 10:42:40;;;;;;;16.20;8.48;;;;;;;;;;5010774;28;20483;-87
2023/12/12 10:45:07;;;;;;;12.80;8.27;;;;;;;;;;5005183;28;20550;-87
2023/12/12 10:47:33;;;;;;;14.90;8.43;;;;;;;;;;5005124;28;20034;-87
2023/12/12 10:50:03;;;;;;;12.65;7.75;;;;;;;;;;5025686;28;20128;-89
2023/12/12 10:52:32;;;;;;;17.67;8.57;;;;;;;;;;5024391;28;20715;-87
2023/12/12 10:54:59;;;;;;;15.63;7.90;;;;;;;;;;5030485;28;20037;-85
2023/12/12 10:57:26;;;;;;;16.42;8.05;;;;;;;;;;5008578;28;20086;-86
2023/12/12 10:59:53;;;;;;;14.85;8.65;;;;;;;;;;5022957;28;20041;-85
2023/12/12 11:02:20;;;;;;;14.07;8.05;;;;;;;;;;5013526;28;20119;-86
2023/12/12 11:04:47;;;;;;;13.32;8.05;;;;;;;;;;5030317;28;20449;-84
2023/12/12 11:07:13;;;;;;;16.85;8.55;;;;;;;;;;5034500;28;20320;-87
2023/12/12 11:09:39;;;;;;;13.20;8.50;;;;;;;;;;5026783;28;20104;-86
2023/12/12 11:12:06;;;;;;;13.50;7.63;;;;;;;;;;5025119;28;20136;-87
2023/12/12 11:14:32;;;;;;;14.73;8.15;;;;;;;;;;5023589;28;20048;-89
2023/12/12 11:16:59;;;;;;;16.13;8.35;;;;;;;;;;5007182;28;20041;-88
2023/12/12 11:19:26;;;;;;;22.27;10.43;;;;;;;;;;5027770;28;20053;-86
2023/12/12 11:21:52;;;;;;;25.02;10.75;;;;;;;;;;5013237;28;20041;-86
2023/12/12 11:24:20;;;;;;;19.33;9.40;;;;;;;;;;5028526;28;20033;-88
2023/12/12 11:26:52;;;;;;;25.90;11.65;;;;;;;;;;5014134;28;20096;-87
2023/12/12 11:29:23;;;;;;;20.20;10.10;;;;;;;;;;5014809;28;20045;-86
2023/12/12 11:31:58;;;;;;;25.75;11.82;;;;;;;;;;5011798;28;20068;-85
2023/12/12 11:34:25;;;;;;;14.68;8.38;;;;;;;;;;5026770;28;20040;-85
2023/12/12 11:36:51;;;;;;;20.63;9.60;;;;;;;;;;5014727;28;20091;-85
2023/12/12 11:39:30;;;;;;;19.33;9.20;;;;;;;;;;5030667;28;20047;-85
2023/12/12 11:41:57;;;;;;;21.15;10.38;;;;;;;;;;5026301;28;20099;-87
2023/12/12 11:44:24;;;;;;;19.65;10.13;;;;;;;;;;5025693;28;20045;-87
2023/12/12 11:46:54;;;;;;;15.63;8.68;;;;;;;;;;5030421;28;20033;-88
2023/12/12 11:49:20;;;;;;;;;;;;;;;;;;5011027;28;20060;-86
2023/12/12 11:51:49;;;;;;;19.30;8.23;;;;;;;;;;5030590;28;20291;-86
2023/12/12 11:54:22;;;;;;;14.43;8.07;;;;;;;;;;5031672;28;20496;-85
2023/12/12 11:56:49;;;;;;;18.73;8.27;;;;;;;;;;5033063;28;20095;-85
2023/12/12 11:59:22;;;;;;;15.95;8.88;;;;;;;;;;5049598;28;20491;-84
2023/12/12 12:01:48;;;;;;;16.52;7.82;;;;;;;;;;5011750;28;20076;-85
2023/12/12 12:04:14;;;;;;;14.82;8.25;;;;;;;;;;5043351;28;20121;-85
2023/12/12 12:06:40;;;;;;;17.17;9.75;;;;;;;;;;5050058;28;20072;-84
2023/12/12 12:09:09;;;;;;;16.73;8.98;;;;;;;;;;5044571;28;20047;-83
2023/12/12 12:11:39;;;;;;;16.00;7.60;;;;;;;;;;5024856;28;20045;-86
2023/12/12 12:14:05;;;;;;;18.60;8.60;;;;;;;;;;5029484;28;20048;-85
2023/12/12 12:16:31;;;;;;;18.63;9.23;;;;;;;;;;5030781;28;20042;-86
2023/12/12 12:18:57;;;;;;;18.75;9.68;;;;;;;;;;5011206;28;20132;-84
2023/12/12 12:21:26;;;;;;;18.70;10.15;;;;;;;;;;5047478;28;20458;-85
2023/12/12 12:23:53;;;;;;;21.35;9.57;;;;;;;;;;5030493;28;20098;-83
2023/12/12 12:26:19;;;;;;;17.40;8.18;;;;;;;;;;5028765;28;20033;-83
2023/12/12 12:28:46;;;;;;;18.88;9.23;;;;;;;;;;5029965;28;20041;-85
2023/12/12 12:31:12;;;;;;;18.48;9.40;;;;;;;;;;5043215;28;20037;-84
2023/12/12 12:33:39;;;;;;;14.45;8.57;;;;;;;;;;5030690;28;20037;-84
2023/12/12 12:36:05;;;;;;;18.20;8.63;;;;;;;;;;5018452;28;20377;-83
2023/12/12 12:38:32;;;;;;;18.17;9.52;;;;;;;;;;5051040;28;20041;-84
2023/12/12 12:40:58;;;;;;;20.23;9.40;;;;;;;;;;5029033;28;20056;-84
2023/12/12 12:43:24;;;;;;;19.88;9.35;;;;;;;;;;5028431;28;20091;-85
2023/12/12 12:45:51;;;;;;;20.80;9.05;;;;;;;;;;5027166;28;20488;-86
2023/12/12 12:48:17;;;;;;;19.08;9.05;;;;;;;;;;5015760;28;20068;-86
2023/12/12 12:50:45;;;;;;;18.30;8.38;;;;;;;;;;5030243;28;20053;-87
2023/12/12 12:53:11;;;;;;;17.42;8.95;;;;;;;;;;5026308;28;20087;-87
2023/12/12 12:55:42;;;;;;;23.67;9.70;;;;;;;;;;5008870;28;20039;-86
2023/12/12 12:58:09;;;;;;;23.65;9.18;;;;;;;;;;5008035;28;20123;-85
2023/12/12 13:00:35;;;;;;;20.83;10.93;;;;;;;;;;5028194;28;20106;-88
2023/12/12 13:03:03;;;;;;;26.70;9.90;;;;;;;;;;5010741;28;20033;-87
2023/12/12 13:05:29;;;;;;;24.05;10.00;;;;;;;;;;5016423;28;20029;-86
2023/12/12 13:07:56;;;;;;;23.25;9.45;;;;;;;;;;5028668;28;20045;-85
2023/12/12 13:10:22;;;;;;;21.70;9.13;;;;;;;;;;5027254;28;20053;-86
2023/12/12 13:12:48;;;;;;;29.48;10.57;;;;;;;;;;5029550;28;20103;-85
2023/12/12 13:15:14;;;;;;;32.10;11.63;;;;;;;;;;5029341;28;20488;-86
2023/12/12 13:17:40;;;;;;;25.02;9.82;;;;;;;;;;5010173;28;20051;-85
2023/12/12 13:20:10;;;;;;;32.28;11.65;;;;;;;;;;5033765;28;20041;-85
2023/12/12 13:22:46;;;;;;;33.28;13.27;;;;;;;;;;5029507;28;20041;-84
2023/12/12 13:25:13;;;;;;;32.00;11.63;;;;;;;;;;5027277;28;20403;-84
2023/12/12 13:27:39;;;;;;;30.60;13.18;;;;;;;;;;5029731;28;20072;-85
2023/12/12 13:30:09;;;;;;;28.58;11.88;;;;;;;;;;5042153;28;20041;-85
2023/12/12 13:32:36;;;;;;;31.02;12.85;;;;;;;;;;5026990;28;20467;-85
2023/12/12 13:35:02;;;;;;;35.85;13.40;;;;;;;;;;5028575;28;20053;-85
2023/12/12 13:37:28;;;;;;;32.72;13.77;;;;;;;;;;5029360;28;20040;-84
2023/12/12 13:39:54;;;;;;;35.70;13.35;;;;;;;;;;5024921;28;20100;-85
2023/12/12 13:42:22;;;;;;;32.35;13.10;;;;;;;;;;5027460;28;20125;-86
2023/12/12 13:44:48;;;;;;;37.17;12.75;;;;;;;;;;5012696;28;20116;-85
2023/12/12 13:47:14;;;;;;;41.65;16.58;;;;;;;;;;5027356;28;20047;-84
2023/12/12 13:49:40;;;;;;;39.10;14.23;;;;;;;;;;5027508;28;20049;-85
2023/12/12 13:52:07;;;;;;;40.28;16.15;;;;;;;;;;5026315;28;20107;-86
2023/12/12 13:54:33;;;;;;;38.40;15.25;;;;;;;;;;5025999;28;20105;-85
2023/12/12 13:56:59;;;;;;;41.58;15.85;;;;;;;;;;5007415;28;20033;-84
2023/12/12 13:59:25;;;;;;;36.90;15.13;;;;;;;;;;5009163;28;20447;-85
2023/12/12 14:01:51;;;;;;;38.13;14.30;;;;;;;;;;5025255;28;20033;-85
2023/12/12 14:04:18;;;;;;;39.95;16.13;;;;;;;;;;5042050;28;20480;-85
2023/12/12 14:06:44;;;;;;;38.15;15.40;;;;;;;;;;5025246;28;20453;-85
2023/12/12 14:09:11;;;;;;;33.03;14.32;;;;;;;;;;5023958;28;20075;-85
2023/12/12 14:11:37;;;;;;;31.20;13.05;;;;;;;;;;5044675;28;20053;-84
2023/12/12 14:14:03;;;;;;;32.15;13.45;;;;;;;;;;5042602;28;20049;-86
2023/12/12 14:16:30;;;;;;;35.83;14.45;;;;;;;;;;5026066;28;20049;-86
2023/12/12 14:18:56;;;;;;;36.60;14.82;;;;;;;;;;5008868;28;20032;-85
2023/12/12 14:21:22;;;;;;;35.13;16.50;;;;;;;;;;5030196;28;20500;-85
2023/12/12 14:23:48;;;;;;;37.08;14.65;;;;;;;;;;5008541;28;20135;-85
2023/12/12 14:26:16;;;;;;;31.90;12.10;;;;;;;;;;5010077;28;20047;-85
2023/12/12 14:28:44;;;;;;;34.70;13.35;;;;;;;;;;5011047;28;20507;-85